createdAt,value
2023-04-01T00:01:01.368Z,4.28
2023-04-01T00:03:28.452Z,4.07
2023-04-01T00:05:56.248Z,3.63
2023-04-01T00:08:23.139Z,3.45
2023-04-01T00:10:49.855Z,10.35
2023-04-01T00:13:16.598Z,5.80
2023-04-01T00:15:43.726Z,5.03
2023-04-01T00:18:10.487Z,3.53
2023-04-01T00:20:37.298Z,5.10
2023-04-01T00:23:03.936Z,5.50
2023-04-01T00:25:31.086Z,3.90
2023-04-01T00:27:57.937Z,4.43
2023-04-01T00:30:24.585Z,2.90
2023-04-01T00:32:54.687Z,3.78
2023-04-01T00:35:21.599Z,4.03
2023-04-01T00:37:48.503Z,3.42
2023-04-01T00:40:31.736Z,4.38
2023-04-01T00:42:58.379Z,3.67
2023-04-01T00:45:36.505Z,3.47
2023-04-01T00:48:07.088Z,3.17
2023-04-01T00:50:34.425Z,3.55
2023-04-01T00:53:01.374Z,4.07
2023-04-01T00:55:28.528Z,4.75
2023-04-01T00:57:55.257Z,4.00
2023-04-01T01:00:22.581Z,4.22
2023-04-01T01:02:49.400Z,4.60
2023-04-01T01:05:16.477Z,4.40
2023-04-01T01:08:11.729Z,4.65
2023-04-01T01:10:39.322Z,4.53
2023-04-01T01:13:12.713Z,4.18
2023-04-01T01:15:39.280Z,5.25
2023-04-01T01:18:38.157Z,4.93
2023-04-01T01:21:21.920Z,5.47
2023-04-01T01:24:07.464Z,6.07
2023-04-01T01:27:03.832Z,6.13
2023-04-01T01:29:50.480Z,4.85
2023-04-01T01:32:55.729Z,4.85
2023-04-01T01:36:00.989Z,5.43
2023-04-01T01:38:29.019Z,6.50
2023-04-01T01:40:57.588Z,6.55
2023-04-01T01:43:26.959Z,6.47
2023-04-01T01:45:56.101Z,5.78
2023-04-01T01:48:23.590Z,5.82
2023-04-01T01:50:50.421Z,6.22
2023-04-01T01:53:17.120Z,6.00
2023-04-01T01:55:45.404Z,5.13
2023-04-01T01:58:15.210Z,5.63
2023-04-01T02:00:43.024Z,8.05
2023-04-01T02:03:09.685Z,8.88
2023-04-01T02:05:36.315Z,10.18
2023-04-01T02:08:10.506Z,12.43
2023-04-01T02:10:38.836Z,9.20
2023-04-01T02:13:09.351Z,5.85
2023-04-01T02:15:37.850Z,7.22
2023-04-01T02:18:04.575Z,5.25
2023-04-01T02:20:31.276Z,4.70
2023-04-01T02:22:59.333Z,4.00
2023-04-01T02:25:30.896Z,7.90
2023-04-01T02:27:58.332Z,6.90
2023-04-01T02:30:25.129Z,3.70
2023-04-01T02:32:51.986Z,2.42
2023-04-01T02:35:18.738Z,1.98
2023-04-01T02:37:46.305Z,4.55
2023-04-01T02:40:13.856Z,7.40
2023-04-01T02:42:40.664Z,7.57
2023-04-01T02:45:07.899Z,5.72
2023-04-01T02:47:34.601Z,5.63
2023-04-01T02:50:01.275Z,4.80
2023-04-01T02:52:29.123Z,5.15
2023-04-01T02:54:56.106Z,5.55
2023-04-01T02:57:22.977Z,6.65
2023-04-01T02:59:49.742Z,7.18
2023-04-01T03:02:16.523Z,7.10
2023-04-01T03:04:43.289Z,6.78
2023-04-01T03:07:11.021Z,6.30
2023-04-01T03:09:38.519Z,4.82
2023-04-01T03:12:06.234Z,4.78
2023-04-01T03:14:32.879Z,3.53
2023-04-01T03:16:59.548Z,3.40
2023-04-01T03:19:26.219Z,5.03
2023-04-01T03:21:52.840Z,6.50
2023-04-01T03:24:21.466Z,10.23
2023-04-01T03:26:48.095Z,10.43
2023-04-01T03:29:16.744Z,9.25
2023-04-01T03:31:43.607Z,9.15
2023-04-01T03:34:10.348Z,10.07
2023-04-01T03:36:37.152Z,10.10
2023-04-01T03:39:04.828Z,10.23
2023-04-01T03:41:31.847Z,9.60
2023-04-01T03:43:58.530Z,38.92
2023-04-01T03:46:25.373Z,26.45
2023-04-01T03:48:52.072Z,23.63
2023-04-01T03:51:18.759Z,16.23
2023-04-01T03:53:45.830Z,14.32
2023-04-01T03:56:12.681Z,15.15
2023-04-01T03:58:40.102Z,12.35
2023-04-01T04:01:22.751Z,12.05
2023-04-01T04:03:50.748Z,11.13
2023-04-01T04:06:18.552Z,9.20
2023-04-01T04:08:45.600Z,8.02
2023-04-01T04:11:12.385Z,8.88
2023-04-01T04:13:39.043Z,9.88
2023-04-01T04:16:06.009Z,11.98
2023-04-01T04:18:32.684Z,10.27
2023-04-01T04:20:59.379Z,12.88
2023-04-01T04:23:26.107Z,9.15
2023-04-01T04:26:03.583Z,11.48
2023-04-01T04:28:30.384Z,10.40
2023-04-01T04:30:57.162Z,12.38
2023-04-01T04:33:24.125Z,13.43
2023-04-01T04:35:50.947Z,9.95
2023-04-01T04:38:17.699Z,26.05
2023-04-01T04:40:44.634Z,17.80
2023-04-01T04:43:13.162Z,12.75
2023-04-01T04:45:40.095Z,13.20
2023-04-01T04:48:08.818Z,15.50
2023-04-01T04:50:35.622Z,13.10
2023-04-01T04:53:02.655Z,12.27
2023-04-01T04:55:29.315Z,11.07
2023-04-01T04:57:56.241Z,12.05
2023-04-01T05:00:22.922Z,10.95
2023-04-01T05:02:49.720Z,10.77
2023-04-01T05:05:16.622Z,16.40
2023-04-01T05:07:43.234Z,16.20
2023-04-01T05:10:10.205Z,35.45
2023-04-01T05:12:40.007Z,51.90
2023-04-01T05:15:07.397Z,40.15
2023-04-01T05:17:34.171Z,38.15
2023-04-01T05:20:00.922Z,32.40
2023-04-01T05:22:27.678Z,30.50
2023-04-01T05:24:54.284Z,28.33
2023-04-01T05:27:21.227Z,25.90
2023-04-01T05:29:48.023Z,28.77
2023-04-01T05:32:14.705Z,28.85
2023-04-01T05:34:41.406Z,30.75
2023-04-01T05:37:08.382Z,24.30
2023-04-01T05:39:38.881Z,26.23
2023-04-01T05:42:06.945Z,26.08
2023-04-01T05:44:33.698Z,23.92
2023-04-01T05:47:00.392Z,29.15
2023-04-01T05:49:28.845Z,29.27
2023-04-01T05:51:55.724Z,29.55
2023-04-01T05:54:22.486Z,23.75
2023-04-01T05:56:49.239Z,27.00
2023-04-01T05:59:16.133Z,22.92
2023-04-01T06:01:42.805Z,19.13
2023-04-01T06:04:14.604Z,16.20
2023-04-01T06:06:41.282Z,16.48
2023-04-01T06:09:30.087Z,16.00
2023-04-01T06:12:09.114Z,16.95
2023-04-01T06:14:41.269Z,14.57
2023-04-01T06:17:10.947Z,14.48
2023-04-01T06:19:43.415Z,12.48
2023-04-01T06:22:14.136Z,15.10
2023-04-01T06:25:19.805Z,18.58
2023-04-01T06:28:02.613Z,17.80
2023-04-01T06:30:36.373Z,19.65
2023-04-01T06:33:34.964Z,16.45
2023-04-01T06:36:16.921Z,19.05
2023-04-01T06:39:06.565Z,20.73
2023-04-01T06:42:11.805Z,21.13
2023-04-01T06:44:56.513Z,20.38
2023-04-01T06:47:31.629Z,18.50
2023-04-01T06:50:23.409Z,20.67
2023-04-01T06:53:09.448Z,19.98
2023-04-01T06:55:58.772Z,20.33
2023-04-01T06:59:07.585Z,20.00
2023-04-01T07:01:39.885Z,17.38
2023-04-01T07:04:28.401Z,20.25
2023-04-01T07:06:59.476Z,18.45
2023-04-01T07:09:29.464Z,16.13
2023-04-01T07:12:04.125Z,17.40
2023-04-01T07:14:35.599Z,19.52
2023-04-01T07:17:10.567Z,16.88
2023-04-01T07:20:00.472Z,16.65
2023-04-01T07:22:46.553Z,14.73
2023-04-01T07:25:16.216Z,19.92
2023-04-01T07:27:43.599Z,20.45
2023-04-01T07:30:18.169Z,15.95
2023-04-01T07:32:58.916Z,2.58
2023-04-01T07:38:27.522Z,3.60
2023-04-01T07:41:16.768Z,3.28
2023-04-01T07:43:49.563Z,1.70
2023-04-01T07:46:23.027Z,1.88
2023-04-01T07:49:09.375Z,1.88
2023-04-01T07:51:45.008Z,2.08
2023-04-01T07:54:24.808Z,1.30
2023-04-01T07:57:12.937Z,1.77
2023-04-01T08:00:14.991Z,1.45
2023-04-01T08:03:09.354Z,1.20
2023-04-01T08:05:50.789Z,1.15
2023-04-01T08:08:58.014Z,1.45
2023-04-01T08:11:31.304Z,1.05
2023-04-01T08:14:12.620Z,1.17
2023-04-01T08:16:48.104Z,1.50
2023-04-01T08:19:29.871Z,1.15
2023-04-01T08:21:58.832Z,1.48
2023-04-01T08:24:47.747Z,1.58
2023-04-01T08:27:24.415Z,1.38
2023-04-01T08:30:17.370Z,1.08
2023-04-01T08:32:45.972Z,1.45
2023-04-01T08:35:21.884Z,2.25
2023-04-01T08:37:48.573Z,1.27
2023-04-01T08:40:52.802Z,1.67
2023-04-01T08:43:49.128Z,0.98
2023-04-01T08:46:49.864Z,1.38
2023-04-01T08:50:01.746Z,1.92
2023-04-01T08:52:33.868Z,1.25
2023-04-01T08:55:21.830Z,1.67
2023-04-01T08:58:21.646Z,1.67
2023-04-01T09:00:58.484Z,1.42
2023-04-01T09:03:52.691Z,1.20
2023-04-01T09:06:28.133Z,1.20
2023-04-01T09:09:11.961Z,0.82
2023-04-01T09:12:03.329Z,0.90
2023-04-01T09:14:36.705Z,1.00
2023-04-01T09:17:03.293Z,1.10
2023-04-01T09:20:15.267Z,1.73
2023-04-01T09:23:18.974Z,1.58
2023-04-01T09:25:51.564Z,1.15
2023-04-01T09:28:43.897Z,0.80
2023-04-01T09:31:25.767Z,2.05
2023-04-01T09:34:15.402Z,3.72
2023-04-01T09:36:54.225Z,1.60
2023-04-01T09:39:21.101Z,0.90
2023-04-01T09:42:17.136Z,1.95
2023-04-01T09:44:53.185Z,0.90
2023-04-01T09:47:38.117Z,1.88
2023-04-01T09:50:07.837Z,0.90
2023-04-01T09:52:45.357Z,1.05
2023-04-01T09:55:51.096Z,1.23
2023-04-01T09:58:43.992Z,4.90
2023-04-01T10:01:41.450Z,1.20
2023-04-01T10:04:32.771Z,2.78
2023-04-01T10:07:29.953Z,1.25
2023-04-01T10:10:19.817Z,1.08
2023-04-01T10:13:24.268Z,1.40
2023-04-01T10:16:25.161Z,2.08
2023-04-01T10:19:10.655Z,0.80
2023-04-01T10:21:58.945Z,1.52
2023-04-01T10:24:40.818Z,1.20
2023-04-01T10:27:19.154Z,0.82
2023-04-01T10:29:57.120Z,3.15
2023-04-01T10:32:54.859Z,1.92
2023-04-01T10:36:00.410Z,2.20
2023-04-01T10:38:51.915Z,2.38
2023-04-01T10:41:43.652Z,1.83
2023-04-01T10:44:34.991Z,2.08
2023-04-01T10:47:19.845Z,1.00
2023-04-01T10:49:58.473Z,0.80
2023-04-01T10:52:31.140Z,1.00
2023-04-01T10:55:00.508Z,2.08
2023-04-01T10:58:06.250Z,1.63
2023-04-01T11:00:57.707Z,1.50
2023-04-01T11:03:43.231Z,1.20
2023-04-01T11:06:36.924Z,0.90
2023-04-01T11:09:28.999Z,1.00
2023-04-01T11:12:21.529Z,1.40
2023-04-01T11:14:52.897Z,1.67
2023-04-01T11:17:36.383Z,1.52
2023-04-01T11:20:33.908Z,1.70
2023-04-01T11:23:55.037Z,1.25
2023-04-01T11:26:45.571Z,1.48
2023-04-01T11:29:27.465Z,1.30
2023-04-01T11:32:04.198Z,1.55
2023-04-01T11:34:59.439Z,1.48
2023-04-01T11:37:37.312Z,1.58
2023-04-01T11:40:20.143Z,1.60
2023-04-01T11:43:17.279Z,1.27
2023-04-01T11:46:17.845Z,1.35
2023-04-01T11:49:09.009Z,1.33
2023-04-01T11:51:38.659Z,1.38
2023-04-01T11:54:20.580Z,1.63
2023-04-01T11:57:08.942Z,1.35
2023-04-01T11:59:57.653Z,1.95
2023-04-01T12:02:40.104Z,1.80
2023-04-01T12:05:19.487Z,1.30
2023-04-01T12:08:09.422Z,1.75
2023-04-01T12:11:02.358Z,1.45
2023-04-01T12:13:50.649Z,2.15
2023-04-01T12:16:52.792Z,1.60
2023-04-01T12:19:56.910Z,1.80
2023-04-01T12:23:00.168Z,1.30
2023-04-01T12:25:38.867Z,1.30
2023-04-01T12:28:39.233Z,1.40
2023-04-01T12:31:21.203Z,1.42
2023-04-01T12:34:07.991Z,2.97
2023-04-01T12:36:44.026Z,1.67
2023-04-01T12:39:50.698Z,1.20
2023-04-01T12:42:31.463Z,1.30
2023-04-01T12:45:19.927Z,2.28
2023-04-01T12:47:55.935Z,1.60
2023-04-01T12:50:31.694Z,1.73
2023-04-01T12:53:17.634Z,1.98
2023-04-01T12:55:51.594Z,1.50
2023-04-01T12:58:29.834Z,1.75
2023-04-01T13:01:04.015Z,3.45
2023-04-01T13:03:50.278Z,6.85
2023-04-01T13:06:42.510Z,1.67
2023-04-01T13:09:51.897Z,1.98
2023-04-01T13:12:42.155Z,2.33
2023-04-01T13:15:11.779Z,1.85
2023-04-01T13:17:47.480Z,1.45
2023-04-01T13:20:26.086Z,1.10
2023-04-01T13:23:04.905Z,1.83
2023-04-01T13:25:42.133Z,1.60
2023-04-01T13:28:33.601Z,2.45
2023-04-01T13:31:08.824Z,1.88
2023-04-01T13:33:40.908Z,3.70
2023-04-01T13:36:34.905Z,1.98
2023-04-01T13:39:13.411Z,2.25
2023-04-01T13:42:12.442Z,2.70
2023-04-01T13:44:43.332Z,2.25
2023-04-01T13:47:28.433Z,1.70
2023-04-01T13:50:11.275Z,2.55
2023-04-01T13:52:53.050Z,2.25
2023-04-01T13:55:34.955Z,1.88
2023-04-01T13:58:26.333Z,1.33
2023-04-01T14:01:42.484Z,2.63
2023-04-01T14:04:33.519Z,2.40
2023-04-01T14:07:02.851Z,1.92
2023-04-01T14:10:05.175Z,3.30
2023-04-01T14:12:57.852Z,1.70
2023-04-01T14:15:55.240Z,1.88
2023-04-01T14:18:43.258Z,2.97
2023-04-01T14:21:33.250Z,2.90
2023-04-01T14:24:15.057Z,5.63
2023-04-01T14:27:21.460Z,3.75
2023-04-01T14:30:25.502Z,3.75
2023-04-01T14:33:01.232Z,5.20
2023-04-01T14:36:00.325Z,4.07
2023-04-01T14:38:45.089Z,3.38
2023-04-01T14:41:17.530Z,6.68
2023-04-01T14:44:06.447Z,14.00
2023-04-01T14:47:14.922Z,5.32
2023-04-01T14:49:43.293Z,4.25
2023-04-01T14:52:12.922Z,5.75
2023-04-01T14:54:41.003Z,15.75
2023-04-01T14:57:16.111Z,8.77
2023-04-01T14:59:51.240Z,34.60
2023-04-01T15:02:33.410Z,9.88
2023-04-01T15:05:08.380Z,8.50
2023-04-01T15:08:06.345Z,9.35
2023-04-01T15:10:52.165Z,25.70
2023-04-01T15:13:31.410Z,38.35
2023-04-01T15:16:16.174Z,31.35
2023-04-01T15:19:01.391Z,27.25
2023-04-01T15:21:56.835Z,8.25
2023-04-01T15:24:40.671Z,10.13
2023-04-01T15:27:15.809Z,46.58
2023-04-01T15:30:27.064Z,8.88
2023-04-01T15:33:00.250Z,8.82
2023-04-01T15:35:49.635Z,12.02
2023-04-01T15:38:40.870Z,5.00
2023-04-01T15:41:18.277Z,5.00
2023-04-01T15:43:58.330Z,6.05
2023-04-01T15:46:44.812Z,4.28
2023-04-01T15:49:24.229Z,3.10
2023-04-01T15:52:03.792Z,3.17
2023-04-01T15:54:49.258Z,5.60
2023-04-01T15:57:37.561Z,6.13
2023-04-01T16:00:12.905Z,12.40
2023-04-01T16:02:50.631Z,6.22
2023-04-01T16:05:46.631Z,3.83
2023-04-01T16:08:25.474Z,4.40
2023-04-01T16:11:17.376Z,2.83
2023-04-01T16:13:47.713Z,3.00
2023-04-01T16:16:23.576Z,7.05
2023-04-01T16:19:19.131Z,13.32
2023-04-01T16:21:59.921Z,19.38
2023-04-01T16:24:40.829Z,11.10
2023-04-01T16:27:16.463Z,18.40
2023-04-01T16:29:58.396Z,18.33
2023-04-01T16:33:07.038Z,18.70
2023-04-01T16:35:50.756Z,14.38
2023-04-01T16:38:37.981Z,13.35
2023-04-01T16:41:28.647Z,13.70
2023-04-01T16:44:01.291Z,10.48
2023-04-01T16:46:41.831Z,5.47
2023-04-01T16:49:29.251Z,10.50
2023-04-01T16:52:14.014Z,6.65
2023-04-01T16:54:52.906Z,60.88
2023-04-01T16:57:33.018Z,14.80
2023-04-01T17:00:22.979Z,26.60
2023-04-01T17:03:08.249Z,11.35
2023-04-01T17:05:43.620Z,27.50
2023-04-01T17:08:28.171Z,28.27
2023-04-01T17:11:00.194Z,12.32
2023-04-01T17:13:37.227Z,26.70
2023-04-01T17:16:22.377Z,5.93
2023-04-01T17:18:51.969Z,18.65
2023-04-01T17:21:31.743Z,13.00
2023-04-01T17:24:29.342Z,25.77
2023-04-01T17:27:05.698Z,12.63
2023-04-01T17:30:13.858Z,8.88
2023-04-01T17:33:18.258Z,10.85
2023-04-01T17:36:10.581Z,12.15
2023-04-01T17:38:56.516Z,9.55
2023-04-01T17:41:41.569Z,13.27
2023-04-01T17:44:23.151Z,16.38
2023-04-01T17:47:01.784Z,22.15
2023-04-01T17:49:36.648Z,23.95
2023-04-01T17:52:31.531Z,22.83
2023-04-01T17:55:24.534Z,16.27
2023-04-01T17:58:08.470Z,24.35
2023-04-01T18:00:52.772Z,23.00
2023-04-01T18:03:45.663Z,14.20
2023-04-01T18:06:37.460Z,9.82
2023-04-01T18:09:13.234Z,14.27
2023-04-01T18:12:39.524Z,17.10
2023-04-01T18:15:27.530Z,13.68
2023-04-01T18:17:59.535Z,13.75
2023-04-01T18:20:42.351Z,16.35
2023-04-01T18:23:18.319Z,16.95
2023-04-01T18:25:49.163Z,9.30
2023-04-01T18:28:34.061Z,14.45
2023-04-01T18:31:03.454Z,16.00
2023-04-01T18:33:50.737Z,13.55
2023-04-01T18:36:46.725Z,22.42
2023-04-01T18:39:34.584Z,43.63
2023-04-01T18:42:05.179Z,30.25
2023-04-01T18:44:39.767Z,27.55
2023-04-01T18:47:21.179Z,19.35
2023-04-01T18:49:54.183Z,23.45
2023-04-01T18:52:32.727Z,23.33
2023-04-01T18:55:02.401Z,14.45
2023-04-01T18:57:49.239Z,17.63
2023-04-01T19:00:34.771Z,27.95
2023-04-01T19:03:36.406Z,12.02
2023-04-01T19:06:09.866Z,14.10
2023-04-01T19:08:37.355Z,14.38
2023-04-01T19:11:16.081Z,18.90
2023-04-01T19:13:57.612Z,20.67
2023-04-01T19:16:29.316Z,21.30
2023-04-01T19:19:17.201Z,18.77
2023-04-01T19:21:48.019Z,37.00
2023-04-01T19:24:26.749Z,15.90
2023-04-01T19:27:21.428Z,13.98
2023-04-01T19:30:04.069Z,15.27
2023-04-01T19:32:52.581Z,14.82
2023-04-01T19:35:29.607Z,12.65
2023-04-01T19:38:05.500Z,10.70
2023-04-01T19:40:38.666Z,15.10
2023-04-01T19:43:05.365Z,11.63
2023-04-01T19:46:10.431Z,9.38
2023-04-01T19:48:44.268Z,8.63
2023-04-01T19:51:43.278Z,12.55
2023-04-01T19:54:31.974Z,18.42
2023-04-01T19:57:33.518Z,8.02
2023-04-01T20:00:23.729Z,8.70
2023-04-01T20:03:04.974Z,9.15
2023-04-01T20:05:48.598Z,11.40
2023-04-01T20:08:40.438Z,23.67
2023-04-01T20:11:15.242Z,10.25
2023-04-01T20:13:47.457Z,8.35
2023-04-01T20:16:16.265Z,11.07
2023-04-01T20:18:59.407Z,17.23
2023-04-01T20:21:32.962Z,13.02
2023-04-01T20:24:01.891Z,11.63
2023-04-01T20:26:34.570Z,13.02
2023-04-01T20:29:30.369Z,17.08
2023-04-01T20:32:15.645Z,12.35
2023-04-01T20:34:42.301Z,17.10
2023-04-01T20:37:22.989Z,9.80
2023-04-01T20:40:18.643Z,10.80
2023-04-01T20:43:14.700Z,12.75
2023-04-01T20:45:47.335Z,9.88
2023-04-01T20:48:46.614Z,8.98
2023-04-01T20:51:17.810Z,9.70
2023-04-01T20:53:56.561Z,7.65
2023-04-01T20:56:25.231Z,7.97
2023-04-01T20:58:57.868Z,9.25
2023-04-01T21:01:48.793Z,8.27
2023-04-01T21:04:43.257Z,6.45
2023-04-01T21:07:27.481Z,5.60
2023-04-01T21:10:05.259Z,5.38
2023-04-01T21:12:37.827Z,5.20
2023-04-01T21:15:20.538Z,5.55
2023-04-01T21:18:12.374Z,7.50
2023-04-01T21:21:16.225Z,8.05
2023-04-01T21:24:21.345Z,11.55
2023-04-01T21:26:57.778Z,7.72
2023-04-01T21:29:30.395Z,7.60
2023-04-01T21:32:01.225Z,9.75
2023-04-01T21:34:51.419Z,7.78
2023-04-01T21:37:22.654Z,5.35
2023-04-01T21:39:59.760Z,4.32
2023-04-01T21:42:32.493Z,6.13
2023-04-01T21:45:17.234Z,2.22
2023-04-01T21:48:11.032Z,2.13
2023-04-01T21:50:54.284Z,2.97
2023-04-01T21:53:42.895Z,5.38
2023-04-01T21:56:15.754Z,7.50
2023-04-01T21:59:02.994Z,7.15
2023-04-01T22:01:59.025Z,8.05
2023-04-01T22:04:37.470Z,11.90
2023-04-01T22:07:17.365Z,12.50
2023-04-01T22:09:54.635Z,10.98
2023-04-01T22:12:38.962Z,13.15
2023-04-01T22:15:26.475Z,13.13
2023-04-01T22:18:05.370Z,14.20
2023-04-01T22:20:39.104Z,12.32
2023-04-01T22:23:31.230Z,10.93
2023-04-01T22:26:07.113Z,8.73
2023-04-01T22:28:56.978Z,9.68
2023-04-01T22:31:59.180Z,10.85
2023-04-01T22:35:03.620Z,8.43
2023-04-01T22:37:59.517Z,8.68
2023-04-01T22:40:43.565Z,9.38
2023-04-01T22:43:13.836Z,8.52
2023-04-01T22:45:41.852Z,8.85
2023-04-01T22:48:39.472Z,5.47
2023-04-01T22:51:17.037Z,7.88
2023-04-01T22:54:20.776Z,3.90
2023-04-01T22:56:59.067Z,3.95
2023-04-01T23:00:02.111Z,6.10
2023-04-01T23:02:33.838Z,4.82
2023-04-01T23:05:02.354Z,5.40
2023-04-01T23:08:04.756Z,3.08
2023-04-01T23:10:42.699Z,2.40
2023-04-01T23:13:16.735Z,2.88
2023-04-01T23:15:43.489Z,2.95
2023-04-01T23:18:28.742Z,3.50
2023-04-01T23:21:01.476Z,2.92
2023-04-01T23:23:48.966Z,3.17
2023-04-01T23:26:18.730Z,2.53
2023-04-01T23:28:53.031Z,2.75
2023-04-01T23:31:39.422Z,2.70
2023-04-01T23:34:12.219Z,3.67
2023-04-01T23:36:49.074Z,5.43
2023-04-01T23:39:23.530Z,4.07
2023-04-01T23:41:51.567Z,4.72
2023-04-01T23:44:18.186Z,4.50
2023-04-01T23:46:46.332Z,4.88
2023-04-01T23:49:20.303Z,3.85
2023-04-01T23:52:00.959Z,3.75
2023-04-01T23:54:50.734Z,3.67
2023-04-01T23:57:21.744Z,4.55
